Archival Weather

Chicago O'Hare International

Chicago, Illinois (KORD)

Report from: Saturday, November 5, 2022 4:51 PM CDT
Current time: Saturday, March 2, 2024 3:52 AM CST

Current weather – Weather history – Daily summaries
Weather forecast

Temperature10.0°C (50.0°F)
Wind chill6.2°C (43.1°F)
Dew point3.9°C (39.0°F)
Winds 20 kts (10.3 m/s, 23 mph) South-Southwest (210°)
Wind gusts 40 kts (20.6 m/s, 46 mph)
Peak wind 49 kts (25.2 m/s, 56.4 mph) South-Southwest (200°) at 21:04
Visibility10 mi. (16.1 km)
Clouds Ceiling: Broken clouds 3,000 ft. (914 m)
Overcast 3,500 ft. (1,067 m)
Altimeter29.54 in.Hg (1000 mB)
Relative humidity66 %
Density altitude-34 ft. (-10 m)
Sea-level pressure100.0 kPa (1000 mB, 29.54 in.Hg)
Remarks Automated weather observing station with precipitation discriminator
Flight conditions Visual Meteorological Conditions
Raw dataKORD 052151Z 21020G40KT 10SM BKN030 OVC035 10/04 A2954 RMK AO2 PK WND 20049/2104 SLP002 T01000039
An error has occurred. This application may no longer respond until reloaded. Reload 🗙